Relevés horaires Semmerzake (Belgique)


Relevés horaires à Semmerzake - Lundi 01 Juin 2020
Heure UTC1 Température [°C] Vent [km/h] Hum. [%] Pres.4 [hPa] Visi. [Km] Nébu. [octa] Préc.5 [mm] Cond.
2m. Res. Ros. Dir.2 Vit. Moy. Raf.3
23:00 16.9 16.9 7.1 NNE 3.7 -- 5.6 52 1020.1(0.5/3h) 20 -- -- --
22:00 17.9 17.9 6.3 N 3.7 -- 5.6 47 1020.1(1.0/3h) 20 -- -- --
21:00 19.2 19.2 6.9 N 3.7 -- 14.8 45 1019.8(0.8/3h) 20 -- -- --
20:00 20.9 20.9 7.4 NNE 5.6 -- 13.0 42 1019.5(0.5/3h) 20 -- -- --
19:00 22.4 22.4 8.6 NNE 7.4 -- 14.8 41 1019(-0.3/3h) 20 -- -- --
18:00 23.7 23.7 8.5 NNE 7.4 -- 16.7 38 1019(-0.4/3h) 20 -- -- --
17:00 25.8 25.8 7.5 ENE 5.6 -- 11.1 31 1018.8(-0.8/3h) 20 -- -- --
16:00 25.7 25.7 7.7 ENE 7.4 -- 13.0 32 1019.2(-0.8/3h) 20 -- -- --
15:00 25.7 25.7 7.9 NE 7.4 -- 16.7 32 1019.5(-1.1/3h) 20 -- -- --
14:00 25.4 25.4 8.4 NE 7.4 -- 14.8 34 1019.7(-1.2/3h) 20 -- -- --
13:00 25.5 25.5 8.6 E 5.6 -- 16.7 34 1020.2(-1.3/3h) 20 -- -- --
12:00 24.4 24.4 8.3 ENE 7.4 -- 16.7 36 1020.6(-1.0/3h) 20 -- -- --
11:00 22.5 22.5 8.0 ENE 7.4 -- 14.8 39 1021.1(-0.8/3h) 20 -- -- --
10:00 22.6 22.6 7.1 ENE 7.4 -- 14.8 37 1021.5(-0.4/3h) 20 -- -- --
09:00 20.9 20.9 7.1 E 5.6 -- 13.0 41 1021.7(0.1/3h) 20 -- -- --
08:00 19.1 19.1 7.5 E 7.4 -- 11.1 47 1022(0.3/3h) 20 -- -- --
07:00 16.4 16.4 7.8 ENE 5.6 -- 7.4 57 1022(0.4/3h) 20 -- -- --
06:00 14.7 14.7 7.3 ENE 3.7 -- 7.4 61 1021.7(0.1/3h) 19 -- -- --
05:00 12.5 12.5 6.9 ENE 3.7 -- 5.6 69 1021.7(0.0/3h) 20 -- -- --
04:00 11.8 11.8 6.1 ENE 3.7 -- 3.7 68 1021.6(0.0/3h) 20 -- -- --
03:00 12.0 12.0 5.9 NE 3.7 -- 5.6 66 1021.6(0.0/3h) 20 -- -- --
02:00 12.8 12.8 5.8 NE 3.7 -- 5.6 62 1021.6(0.0/3h) 20 -- -- --
01:00 13.4 13.4 5.8 NE 3.7 -- 5.6 60 1021.6(0.0/3h) 20 -- -- --
00:00 13.5 13.5 5.6 NNO 1.9 -- 13.0 59 1021.6(0.3/3h) 20 -- -- --

1 Coordinated Universal Time. Actuellement il est 05:00 locale et 03:00 UTC.

2 Le vent souffle depuis la direction indiquée vers la direction oposée.

3 Les rafales max. sont disponible 40 min après l'heure du relevé.

4 Pour les stations d'altitude (plus de 600m) le géopotentiel du niveau le plus proche de la pression obligatoire est indiqué.

5 Les stations disposant d'un diffuseur peuvent indiquer "trace". Cela signifie que des précipitations ont touchés le sol mais que la quantité est inférieure à 0.1 mm.

Récapitulatif de la journée
Température [°C] Vent [km/h] Ensoleillement4 [h] Precipitations totale5 [mm] Pression [Hpa]
Min1 Max.2 Moy.3 Max. Min Max.
11.5 27.0 0 16.7 0 h 0 min 0 1018.8 1022.0

1 Température minimale relevée entre 18:00 UTC la veille et 18:00 UTC le jour donné.

2 Température maximale relevée entre 06:00 UTC le jour donné et 06:00 UTC le lendemain.

3 Vent moyen de la journée basé sur les relevés horaires.

4 Ensoleillement en heures relevé entre 06:00 UTC la veille et 06:00 UTC le jour donné.

5 Précipitations totales tombées entre 06:00 UTC la jour donné et 06:00 UTC le lendemain.

Graphiques horaires